createdAt,value
2018-04-24T00:00:38.768Z,0.00
2018-04-24T00:01:38.770Z,0.00
2018-04-24T00:02:38.770Z,0.00
2018-04-24T00:03:38.771Z,0.00
2018-04-24T00:04:38.773Z,0.00
2018-04-24T00:05:38.774Z,0.00
2018-04-24T00:06:38.776Z,0.00
2018-04-24T00:07:38.776Z,0.00
2018-04-24T00:08:38.779Z,0.00
2018-04-24T00:09:38.783Z,0.00
2018-04-24T00:10:38.780Z,0.00
2018-04-24T00:11:38.782Z,0.00
2018-04-24T00:12:38.781Z,0.00
2018-04-24T00:13:38.784Z,0.00
2018-04-24T00:14:38.784Z,0.00
2018-04-24T00:15:38.786Z,0.00
2018-04-24T00:16:38.787Z,0.00
2018-04-24T00:17:38.789Z,0.00
2018-04-24T00:18:38.789Z,0.00
2018-04-24T00:19:38.789Z,0.00
2018-04-24T00:20:38.792Z,0.00
2018-04-24T00:21:38.792Z,0.00
2018-04-24T00:22:38.794Z,0.00
2018-04-24T00:23:38.794Z,0.00
2018-04-24T00:24:38.797Z,0.00
2018-04-24T00:25:38.797Z,0.00
2018-04-24T00:26:38.797Z,0.00
2018-04-24T00:27:38.799Z,0.00
2018-04-24T00:28:38.801Z,0.00
2018-04-24T00:29:38.801Z,0.00
2018-04-24T00:30:38.801Z,0.00
2018-04-24T00:31:38.802Z,0.00
2018-04-24T00:32:38.807Z,0.00
2018-04-24T00:33:38.804Z,0.00
2018-04-24T00:34:38.805Z,0.00
2018-04-24T00:35:38.808Z,0.00
2018-04-24T00:36:38.810Z,0.00
2018-04-24T00:37:38.810Z,0.00
2018-04-24T00:38:38.810Z,0.00
2018-04-24T00:39:38.813Z,0.00
2018-04-24T00:40:38.812Z,0.00
2018-04-24T00:41:38.815Z,0.00
2018-04-24T00:42:38.816Z,0.00
2018-04-24T00:43:38.815Z,0.00
2018-04-24T00:44:38.817Z,0.00
2018-04-24T00:45:38.861Z,0.00
2018-04-24T00:46:38.820Z,0.00
2018-04-24T00:47:38.820Z,0.00
2018-04-24T00:48:38.821Z,0.00
2018-04-24T00:49:38.823Z,0.00
2018-04-24T00:50:38.824Z,0.00
2018-04-24T00:51:38.826Z,0.00
2018-04-24T00:52:38.827Z,0.00
2018-04-24T00:53:38.828Z,0.00
2018-04-24T00:54:38.826Z,0.00
2018-04-24T00:55:38.830Z,0.00
2018-04-24T00:56:38.830Z,0.00
2018-04-24T00:57:38.839Z,0.00
2018-04-24T00:58:38.831Z,0.00
2018-04-24T00:59:38.834Z,0.00
2018-04-24T01:00:38.834Z,0.00
2018-04-24T01:01:38.835Z,0.00
2018-04-24T01:02:38.837Z,0.00
2018-04-24T01:03:38.836Z,0.00
2018-04-24T01:04:38.838Z,0.00
2018-04-24T01:05:38.839Z,0.00
2018-04-24T01:06:38.894Z,0.00
2018-04-24T01:07:38.841Z,0.00
2018-04-24T01:08:38.842Z,0.00
2018-04-24T01:09:38.844Z,0.00
2018-04-24T01:10:38.843Z,0.00
2018-04-24T01:11:38.846Z,0.00
2018-04-24T01:12:38.847Z,0.00
2018-04-24T01:13:38.848Z,0.00
2018-04-24T01:14:38.850Z,0.00
2018-04-24T01:15:38.848Z,0.00
2018-04-24T01:16:38.852Z,0.00
2018-04-24T01:17:38.851Z,0.00
2018-04-24T01:18:38.852Z,0.00
2018-04-24T01:19:38.853Z,0.00
2018-04-24T01:20:38.855Z,0.00
2018-04-24T01:21:38.855Z,0.00
2018-04-24T01:22:38.855Z,0.00
2018-04-24T01:23:38.858Z,0.00
2018-04-24T01:24:38.858Z,0.00
2018-04-24T01:25:38.865Z,0.00
2018-04-24T01:26:38.860Z,0.00
2018-04-24T01:27:38.860Z,0.00
2018-04-24T01:28:38.865Z,0.00
2018-04-24T01:29:38.863Z,0.00
2018-04-24T01:30:38.862Z,0.00
2018-04-24T01:31:38.865Z,0.00
2018-04-24T01:32:38.864Z,0.00
2018-04-24T01:33:38.867Z,0.00
2018-04-24T01:34:38.867Z,0.00
2018-04-24T01:35:38.868Z,0.00
2018-04-24T01:36:38.869Z,0.00
2018-04-24T01:37:38.874Z,0.00
2018-04-24T01:38:38.872Z,0.00
2018-04-24T01:39:38.871Z,0.00
2018-04-24T01:40:38.874Z,0.00
2018-04-24T01:41:38.874Z,0.00
2018-04-24T01:42:38.874Z,0.00
2018-04-24T01:43:38.877Z,0.00
2018-04-24T01:44:38.878Z,0.00
2018-04-24T01:45:38.882Z,0.00
2018-04-24T01:46:38.879Z,0.00
2018-04-24T01:47:38.878Z,0.00
2018-04-24T01:48:38.880Z,0.00
2018-04-24T01:49:38.881Z,0.00
2018-04-24T01:50:38.886Z,0.00
2018-04-24T01:51:38.882Z,0.00
2018-04-24T01:52:38.885Z,0.00
2018-04-24T01:53:38.885Z,0.00
2018-04-24T01:54:38.885Z,0.00
2018-04-24T01:55:38.886Z,0.00
2018-04-24T01:56:38.887Z,0.00
2018-04-24T01:57:38.890Z,0.00
2018-04-24T01:58:38.890Z,0.00
2018-04-24T01:59:38.891Z,0.00
2018-04-24T02:00:38.893Z,0.00
2018-04-24T02:01:38.892Z,0.00
2018-04-24T02:02:38.893Z,0.00
2018-04-24T02:03:38.894Z,0.00
2018-04-24T02:04:38.897Z,0.00
2018-04-24T02:05:38.895Z,0.00
2018-04-24T02:06:38.896Z,0.00
2018-04-24T02:07:38.901Z,0.00
2018-04-24T02:08:38.898Z,0.00
2018-04-24T02:09:38.900Z,0.00
2018-04-24T02:10:38.903Z,0.00
2018-04-24T02:11:38.902Z,0.00
2018-04-24T02:12:38.903Z,0.00
2018-04-24T02:13:38.903Z,0.00
2018-04-24T02:14:38.904Z,0.00
2018-04-24T02:15:38.904Z,0.00
2018-04-24T02:16:38.906Z,0.00
2018-04-24T02:17:38.906Z,0.00
2018-04-24T02:18:38.908Z,0.00
2018-04-24T02:19:38.910Z,0.00
2018-04-24T02:20:38.910Z,0.00
2018-04-24T02:21:38.911Z,0.00
2018-04-24T02:22:38.945Z,0.00
2018-04-24T02:23:38.911Z,0.00
2018-04-24T02:24:38.912Z,0.00
2018-04-24T02:25:38.913Z,0.00
2018-04-24T02:26:38.915Z,0.00
2018-04-24T02:27:38.916Z,0.00
2018-04-24T02:28:38.918Z,0.00
2018-04-24T02:29:38.919Z,0.00
2018-04-24T02:30:38.919Z,0.00
2018-04-24T02:31:38.919Z,0.00
2018-04-24T02:32:38.920Z,0.00
2018-04-24T02:33:38.933Z,0.00
2018-04-24T02:34:38.921Z,0.00
2018-04-24T02:35:38.924Z,0.00
2018-04-24T02:36:38.924Z,0.00
2018-04-24T02:37:38.928Z,0.00
2018-04-24T02:38:38.926Z,0.00
2018-04-24T02:39:38.926Z,0.00
2018-04-24T02:40:38.929Z,0.00
2018-04-24T02:41:38.931Z,0.00
2018-04-24T02:42:38.930Z,0.00
2018-04-24T02:43:38.929Z,0.00
2018-04-24T02:44:38.930Z,0.00
2018-04-24T02:45:38.931Z,0.00
2018-04-24T02:46:38.931Z,0.00
2018-04-24T02:47:38.933Z,0.00
2018-04-24T02:48:38.933Z,0.00
2018-04-24T02:49:38.935Z,0.00
2018-04-24T02:50:38.935Z,0.00
2018-04-24T02:51:38.936Z,0.00
2018-04-24T02:52:38.938Z,0.00
2018-04-24T02:53:38.936Z,0.00
2018-04-24T02:54:38.937Z,0.00
2018-04-24T02:55:38.942Z,0.00
2018-04-24T02:56:38.944Z,0.00
2018-04-24T02:57:38.941Z,0.00
2018-04-24T02:58:38.941Z,0.00
2018-04-24T02:59:38.944Z,0.00
2018-04-24T03:00:38.942Z,0.00
2018-04-24T03:01:38.943Z,0.00
2018-04-24T03:02:38.946Z,0.00
2018-04-24T03:03:38.943Z,0.00
2018-04-24T03:04:38.945Z,0.00
2018-04-24T03:05:38.945Z,0.00
2018-04-24T03:06:38.946Z,0.00
2018-04-24T03:07:38.953Z,0.00
2018-04-24T03:08:38.948Z,0.00
2018-04-24T03:09:38.950Z,0.00
2018-04-24T03:10:38.949Z,0.00
2018-04-24T03:11:38.951Z,0.00
2018-04-24T03:12:38.951Z,0.00
2018-04-24T03:13:38.953Z,0.00
2018-04-24T03:14:38.953Z,0.00
2018-04-24T03:15:38.954Z,0.00
2018-04-24T03:16:38.954Z,0.00
2018-04-24T03:17:38.955Z,0.00
2018-04-24T03:18:38.955Z,0.00
2018-04-24T03:19:38.957Z,0.00
2018-04-24T03:20:39.035Z,0.00
2018-04-24T03:21:38.957Z,0.00
2018-04-24T03:22:38.958Z,0.00
2018-04-24T03:23:38.961Z,0.00
2018-04-24T03:24:38.960Z,0.00
2018-04-24T03:25:38.967Z,0.00
2018-04-24T03:26:38.963Z,0.00
2018-04-24T03:27:38.962Z,0.00
2018-04-24T03:28:38.964Z,0.00
2018-04-24T03:29:38.965Z,0.00
2018-04-24T03:30:38.965Z,0.00
2018-04-24T03:31:38.968Z,0.00
2018-04-24T03:32:38.968Z,0.00
2018-04-24T03:33:38.969Z,0.00
2018-04-24T03:34:38.969Z,0.00
2018-04-24T03:35:38.971Z,0.00
2018-04-24T03:36:38.971Z,0.00
2018-04-24T03:37:38.972Z,0.00
2018-04-24T03:38:38.972Z,0.00
2018-04-24T03:39:38.973Z,0.00
2018-04-24T03:40:38.976Z,0.00
2018-04-24T03:41:38.977Z,0.00
2018-04-24T03:42:38.975Z,0.00
2018-04-24T03:43:38.976Z,0.00
2018-04-24T03:44:38.977Z,0.00
2018-04-24T03:45:38.980Z,0.00
2018-04-24T03:46:38.979Z,0.00
2018-04-24T03:47:38.981Z,0.00
2018-04-24T03:48:38.983Z,0.00
2018-04-24T03:49:38.982Z,0.00
2018-04-24T03:50:38.983Z,0.00
2018-04-24T03:51:38.984Z,0.00
2018-04-24T03:52:38.985Z,0.00
2018-04-24T03:53:38.985Z,0.00
2018-04-24T03:54:38.985Z,0.00
2018-04-24T03:55:38.986Z,0.00
2018-04-24T03:56:38.988Z,0.00
2018-04-24T03:57:38.989Z,0.00
2018-04-24T03:58:38.988Z,0.00
2018-04-24T03:59:38.988Z,0.00
2018-04-24T04:00:38.991Z,0.00
2018-04-24T04:01:38.991Z,0.00
2018-04-24T04:02:38.995Z,0.00
2018-04-24T04:03:38.992Z,0.00
2018-04-24T04:04:38.991Z,0.00
2018-04-24T04:05:38.993Z,0.00
2018-04-24T04:06:38.991Z,0.00
2018-04-24T04:07:38.996Z,0.00
2018-04-24T04:08:38.995Z,0.00
2018-04-24T04:09:38.996Z,0.00
2018-04-24T04:10:38.994Z,0.00
2018-04-24T04:11:38.997Z,0.00
2018-04-24T04:12:38.995Z,0.00
2018-04-24T04:13:38.997Z,0.00
2018-04-24T04:14:38.995Z,0.00
2018-04-24T04:15:38.999Z,0.00
2018-04-24T04:16:38.998Z,0.00
2018-04-24T04:17:38.999Z,0.00
2018-04-24T04:18:38.997Z,0.00
2018-04-24T04:19:38.999Z,0.00
2018-04-24T04:20:38.998Z,0.00
2018-04-24T04:21:38.999Z,0.00
2018-04-24T04:22:38.998Z,0.00
2018-04-24T04:23:38.999Z,0.00
2018-04-24T04:24:39.001Z,0.00
2018-04-24T04:25:39.000Z,0.00
2018-04-24T04:26:39.000Z,5.63
2018-04-24T04:27:39.000Z,5.63
2018-04-24T04:28:39.000Z,5.63
2018-04-24T04:29:39.002Z,5.63
2018-04-24T04:30:39.001Z,5.63
2018-04-24T04:31:39.000Z,5.63
2018-04-24T04:32:39.002Z,5.63
2018-04-24T04:33:39.002Z,5.63
2018-04-24T04:34:39.002Z,5.63
2018-04-24T04:35:39.002Z,5.63
2018-04-24T04:36:39.004Z,5.63
2018-04-24T04:37:39.004Z,5.63
2018-04-24T04:38:39.003Z,11.25
2018-04-24T04:39:39.005Z,11.25
2018-04-24T04:40:39.006Z,11.25
2018-04-24T04:41:39.007Z,11.25
2018-04-24T04:42:39.005Z,11.25
2018-04-24T04:43:39.008Z,11.25
2018-04-24T04:44:39.007Z,16.88
2018-04-24T04:45:39.007Z,16.88
2018-04-24T04:46:39.008Z,16.88
2018-04-24T04:47:39.009Z,16.88
2018-04-24T04:48:39.010Z,16.88
2018-04-24T04:49:39.012Z,22.50
2018-04-24T04:50:39.011Z,22.50
2018-04-24T04:51:39.014Z,22.50
2018-04-24T04:52:39.012Z,22.50
2018-04-24T04:53:39.014Z,22.50
2018-04-24T04:54:39.015Z,22.50
2018-04-24T04:55:39.014Z,22.50
2018-04-24T04:56:39.015Z,22.50
2018-04-24T04:57:39.019Z,22.50
2018-04-24T04:58:39.015Z,22.50
2018-04-24T04:59:39.018Z,28.13
2018-04-24T05:00:39.020Z,28.13
2018-04-24T05:01:39.019Z,33.75
2018-04-24T05:02:39.020Z,33.75
2018-04-24T05:03:39.019Z,39.38
2018-04-24T05:04:39.022Z,39.38
2018-04-24T05:05:39.021Z,39.38
2018-04-24T05:06:39.023Z,33.75
2018-04-24T05:07:39.025Z,39.38
2018-04-24T05:08:39.022Z,39.38
2018-04-24T05:09:39.025Z,33.75
2018-04-24T05:10:39.023Z,28.13
2018-04-24T05:11:39.025Z,28.13
2018-04-24T05:12:39.025Z,28.13
2018-04-24T05:13:39.027Z,28.13
2018-04-24T05:14:39.027Z,28.13
2018-04-24T05:15:39.027Z,28.13
2018-04-24T05:16:39.028Z,33.75
2018-04-24T05:17:39.029Z,33.75
2018-04-24T05:18:39.030Z,39.38
2018-04-24T05:19:39.031Z,39.38
2018-04-24T05:20:39.031Z,45.00
2018-04-24T05:21:39.033Z,45.00
2018-04-24T05:22:39.032Z,45.00
2018-04-24T05:23:39.033Z,45.00
2018-04-24T05:24:39.034Z,45.00
2018-04-24T05:25:39.034Z,45.00
2018-04-24T05:26:39.128Z,50.63
2018-04-24T05:27:39.036Z,50.63
2018-04-24T05:28:39.037Z,50.63
2018-04-24T05:29:39.038Z,50.63
2018-04-24T05:30:39.037Z,50.63
2018-04-24T05:31:39.040Z,45.00
2018-04-24T05:32:39.039Z,45.00
2018-04-24T05:33:39.040Z,45.00
2018-04-24T05:34:39.042Z,45.00
2018-04-24T05:35:39.059Z,45.00
2018-04-24T05:36:39.044Z,45.00
2018-04-24T05:37:39.043Z,50.63
2018-04-24T05:38:39.049Z,50.63
2018-04-24T05:39:39.045Z,45.00
2018-04-24T05:40:39.044Z,45.00
2018-04-24T05:41:39.046Z,45.00
2018-04-24T05:42:39.045Z,50.63
2018-04-24T05:43:39.046Z,50.63
2018-04-24T05:44:39.048Z,50.63
2018-04-24T05:45:39.047Z,50.63
2018-04-24T05:46:39.048Z,56.25
2018-04-24T05:47:39.048Z,56.25
2018-04-24T05:48:39.050Z,56.25
2018-04-24T05:49:39.050Z,56.25
2018-04-24T05:50:39.167Z,61.88
2018-04-24T05:51:39.073Z,67.50
2018-04-24T05:52:39.083Z,73.13
2018-04-24T05:53:39.052Z,73.13
2018-04-24T05:54:39.053Z,67.50
2018-04-24T05:55:39.056Z,73.13
2018-04-24T05:56:39.055Z,73.13
2018-04-24T05:57:39.054Z,78.75
2018-04-24T05:58:39.054Z,78.75
2018-04-24T05:59:39.055Z,118.13
2018-04-24T06:00:39.179Z,123.75
2018-04-24T06:01:39.058Z,123.75
2018-04-24T06:02:39.056Z,129.38
2018-04-24T06:03:39.056Z,129.38
2018-04-24T06:04:39.057Z,129.38
2018-04-24T06:05:39.058Z,129.38
2018-04-24T06:06:39.059Z,129.38
2018-04-24T06:07:39.091Z,129.38
2018-04-24T06:08:39.109Z,129.38
2018-04-24T06:09:39.060Z,135.00
2018-04-24T06:10:39.061Z,135.00
2018-04-24T06:11:39.064Z,135.00
2018-04-24T06:12:39.064Z,135.00
2018-04-24T06:13:39.147Z,135.00
2018-04-24T06:14:39.095Z,140.63
2018-04-24T06:15:39.093Z,140.63
2018-04-24T06:16:39.126Z,146.25
2018-04-24T06:17:39.069Z,146.25
2018-04-24T06:18:39.073Z,146.25
2018-04-24T06:19:39.069Z,157.50
2018-04-24T06:20:39.073Z,151.88
2018-04-24T06:21:39.074Z,151.88
2018-04-24T06:22:39.074Z,157.50
2018-04-24T06:23:39.075Z,163.13
2018-04-24T06:24:39.076Z,163.13
2018-04-24T06:25:39.129Z,163.13
2018-04-24T06:26:39.079Z,163.13
2018-04-24T06:27:39.080Z,163.13
2018-04-24T06:28:39.193Z,163.13
2018-04-24T06:29:39.085Z,163.13
2018-04-24T06:30:39.086Z,163.13
2018-04-24T06:31:39.087Z,168.75
2018-04-24T06:32:39.090Z,168.75
2018-04-24T06:33:39.091Z,168.75
2018-04-24T06:34:39.091Z,168.75
2018-04-24T06:35:39.097Z,174.38
2018-04-24T06:36:39.095Z,174.38
2018-04-24T06:37:39.097Z,180.00
2018-04-24T06:38:39.098Z,180.00
2018-04-24T06:39:39.099Z,180.00
2018-04-24T06:40:39.103Z,185.63
2018-04-24T06:41:39.104Z,191.25
2018-04-24T06:42:39.106Z,191.25
2018-04-24T06:43:39.112Z,337.50
2018-04-24T06:44:39.111Z,1260.00
2018-04-24T06:45:39.112Z,2238.75
2018-04-24T06:46:39.116Z,2525.63
2018-04-24T06:47:39.147Z,2626.88
2018-04-24T06:48:39.123Z,2604.38
2018-04-24T06:49:39.126Z,2525.63
2018-04-24T06:50:39.133Z,2565.00
2018-04-24T06:51:39.139Z,2565.00
2018-04-24T06:52:39.147Z,2446.88
2018-04-24T06:53:39.154Z,2525.63
2018-04-24T06:54:39.162Z,2716.88
2018-04-24T06:55:39.170Z,2660.63
2018-04-24T06:56:39.180Z,945.00
2018-04-24T06:57:39.188Z,1136.25
2018-04-24T06:58:39.197Z,1158.75
2018-04-24T06:59:39.212Z,1468.13
2018-04-24T07:00:39.239Z,2295.00
2018-04-24T07:01:39.232Z,2025.00
2018-04-24T07:02:39.325Z,922.50
2018-04-24T07:03:39.248Z,1040.63
2018-04-24T07:04:39.254Z,1839.38
2018-04-24T07:05:39.264Z,1721.25
2018-04-24T07:06:39.273Z,1237.50
2018-04-24T07:07:39.282Z,1029.38
2018-04-24T07:08:39.291Z,742.50
2018-04-24T07:09:39.302Z,450.00
2018-04-24T07:10:39.442Z,292.50
2018-04-24T07:11:39.320Z,556.88
2018-04-24T07:12:39.523Z,585.00
2018-04-24T07:13:39.337Z,540.00
2018-04-24T07:14:39.345Z,534.38
2018-04-24T07:15:39.356Z,506.25
2018-04-24T07:16:39.365Z,596.25
2018-04-24T07:17:39.374Z,658.13
2018-04-24T07:18:39.378Z,961.88
2018-04-24T07:19:39.387Z,855.00
2018-04-24T07:20:39.397Z,534.38
2018-04-24T07:21:39.401Z,635.63
2018-04-24T07:22:39.410Z,450.00
2018-04-24T07:23:39.417Z,309.38
2018-04-24T07:24:39.424Z,388.13
2018-04-24T07:25:39.433Z,365.63
2018-04-24T07:26:39.438Z,270.00
2018-04-24T07:27:39.449Z,286.88
2018-04-24T07:28:39.539Z,315.00
2018-04-24T07:29:39.517Z,264.38
2018-04-24T07:30:39.466Z,270.00
2018-04-24T07:31:39.473Z,264.38
2018-04-24T07:32:39.480Z,264.38
2018-04-24T07:33:39.486Z,281.25
2018-04-24T07:34:39.494Z,298.13
2018-04-24T07:35:39.499Z,275.63
2018-04-24T07:36:39.507Z,320.63
2018-04-24T07:37:39.514Z,337.50
2018-04-24T07:38:39.519Z,331.88
2018-04-24T07:39:39.525Z,315.00
2018-04-24T07:40:39.533Z,528.75
2018-04-24T07:41:39.537Z,714.38
2018-04-24T07:42:39.542Z,669.38
2018-04-24T07:43:39.557Z,483.75
2018-04-24T07:44:39.576Z,455.63
2018-04-24T07:45:39.563Z,331.88
2018-04-24T07:46:39.604Z,540.00
2018-04-24T07:47:39.581Z,911.25
2018-04-24T07:48:39.582Z,658.13
2018-04-24T07:49:39.592Z,337.50
2018-04-24T07:50:39.595Z,331.88
2018-04-24T07:51:39.602Z,416.25
2018-04-24T07:52:39.610Z,382.50
2018-04-24T07:53:39.618Z,832.50
2018-04-24T07:54:39.623Z,911.25
2018-04-24T07:55:39.633Z,663.75
2018-04-24T07:56:39.638Z,601.88
2018-04-24T07:57:40.000Z,568.13
2018-04-24T07:58:39.651Z,787.50
2018-04-24T07:59:39.666Z,495.00
2018-04-24T08:00:39.667Z,450.00
2018-04-24T08:01:39.677Z,298.13
2018-04-24T08:02:39.683Z,545.63
2018-04-24T08:03:39.691Z,933.75
2018-04-24T08:04:39.699Z,1940.63
2018-04-24T08:05:39.818Z,2036.25
2018-04-24T08:06:39.714Z,1423.13
2018-04-24T08:07:39.723Z,691.88
2018-04-24T08:08:39.733Z,691.88
2018-04-24T08:09:39.741Z,922.50
2018-04-24T08:10:39.749Z,742.50
2018-04-24T08:11:39.759Z,1541.25
2018-04-24T08:12:39.767Z,2227.50
2018-04-24T08:13:39.775Z,1721.25
2018-04-24T08:14:39.783Z,1102.50
2018-04-24T08:15:39.793Z,1130.63
2018-04-24T08:16:39.974Z,1811.25
2018-04-24T08:17:39.812Z,2396.25
2018-04-24T08:18:39.826Z,2604.38
2018-04-24T08:19:39.833Z,2626.88
2018-04-24T08:20:39.846Z,2553.75
2018-04-24T08:21:39.857Z,2205.00
2018-04-24T08:22:39.869Z,1361.25
2018-04-24T08:23:39.988Z,545.63
2018-04-24T08:24:39.893Z,978.75
2018-04-24T08:25:39.906Z,1282.50
2018-04-24T08:26:39.919Z,1648.13
2018-04-24T08:27:39.931Z,1389.38
2018-04-24T08:28:39.944Z,770.63
2018-04-24T08:29:39.956Z,663.75
2018-04-24T08:30:39.972Z,967.50
2018-04-24T08:31:39.979Z,1575.00
2018-04-24T08:32:39.993Z,1102.50
2018-04-24T08:33:40.078Z,871.88
2018-04-24T08:34:40.014Z,697.50
2018-04-24T08:35:40.025Z,652.50
2018-04-24T08:36:40.037Z,573.75
2018-04-24T08:37:40.050Z,900.00
2018-04-24T08:38:40.057Z,680.63
2018-04-24T08:39:40.355Z,793.13
2018-04-24T08:40:40.078Z,742.50
2018-04-24T08:41:40.091Z,810.00
2018-04-24T08:42:40.098Z,1158.75
2018-04-24T08:43:40.431Z,714.38
2018-04-24T08:44:40.118Z,1946.25
2018-04-24T08:45:40.128Z,1226.25
2018-04-24T08:46:40.137Z,1102.50
2018-04-24T08:47:40.315Z,888.75
2018-04-24T08:48:40.165Z,388.13
2018-04-24T08:49:40.168Z,208.13
2018-04-24T08:50:40.177Z,157.50
2018-04-24T08:51:40.186Z,168.75
2018-04-24T08:52:40.194Z,163.13
2018-04-24T08:53:40.259Z,174.38
2018-04-24T08:54:40.384Z,174.38
2018-04-24T08:55:40.253Z,163.13
2018-04-24T08:56:40.227Z,146.25
2018-04-24T08:57:40.238Z,157.50
2018-04-24T08:58:40.241Z,185.63
2018-04-24T08:59:40.250Z,787.50
2018-04-24T09:00:40.271Z,354.38
2018-04-24T09:01:40.262Z,270.00
2018-04-24T09:05:00.913Z,326.25
2018-04-24T09:06:01.173Z,202.50
2018-04-24T09:07:00.930Z,185.63
2018-04-24T09:08:00.938Z,196.88
2018-04-24T09:09:00.938Z,1743.75
2018-04-24T09:10:00.951Z,1895.63
2018-04-24T09:11:00.953Z,691.88
2018-04-24T09:12:00.961Z,1963.13
2018-04-24T09:13:00.970Z,1912.50
2018-04-24T09:14:01.062Z,1366.88
2018-04-24T09:15:00.990Z,770.63
2018-04-24T09:16:00.996Z,1383.75
2018-04-24T09:17:01.013Z,1721.25
2018-04-24T09:18:01.016Z,1811.25
2018-04-24T09:19:01.028Z,1805.63
2018-04-24T09:20:01.077Z,1996.88
2018-04-24T09:21:01.148Z,2019.38
2018-04-24T09:22:01.062Z,1980.00
2018-04-24T09:23:01.069Z,303.75
2018-04-24T09:24:01.087Z,376.88
2018-04-24T09:25:01.095Z,1805.63
2018-04-24T09:26:01.105Z,1873.13
2018-04-24T09:27:01.143Z,1788.75
2018-04-24T09:28:01.131Z,1710.00
2018-04-24T09:29:01.144Z,1783.13
2018-04-24T09:30:01.158Z,1653.75
2018-04-24T09:31:01.184Z,1558.13
2018-04-24T09:32:01.185Z,1603.13
2018-04-24T09:33:01.199Z,1591.88
2018-04-24T09:34:01.216Z,1552.50
2018-04-24T09:35:01.225Z,1681.88
2018-04-24T09:36:01.241Z,1665.00
2018-04-24T09:37:01.256Z,1659.38
2018-04-24T09:38:01.268Z,1620.00
2018-04-24T09:39:01.293Z,1563.75
2018-04-24T09:40:01.299Z,1659.38
2018-04-24T09:41:01.317Z,1833.75
2018-04-24T09:42:01.329Z,1749.38
2018-04-24T09:43:01.343Z,1485.00
2018-04-24T09:44:01.447Z,1333.13
2018-04-24T09:45:01.444Z,1237.50
2018-04-24T09:46:01.453Z,1074.38
2018-04-24T09:47:01.687Z,984.38
2018-04-24T09:48:01.419Z,888.75
2018-04-24T09:49:01.567Z,821.25
2018-04-24T09:50:01.455Z,798.75
2018-04-24T09:51:01.473Z,838.13
2018-04-24T09:52:01.479Z,838.13
2018-04-24T09:53:01.498Z,826.88
2018-04-24T09:54:01.508Z,815.63
2018-04-24T09:55:01.526Z,607.50
2018-04-24T09:56:01.546Z,877.50
2018-04-24T09:57:01.555Z,956.25
2018-04-24T09:58:01.569Z,990.00
2018-04-24T09:59:01.584Z,973.13
2018-04-24T10:00:01.608Z,1029.38
2018-04-24T10:01:01.655Z,1108.13
2018-04-24T10:02:01.630Z,1170.00
2018-04-24T10:03:01.647Z,1164.38
2018-04-24T10:04:01.789Z,1237.50
2018-04-24T10:05:01.692Z,1338.75
2018-04-24T10:06:01.743Z,1440.00
2018-04-24T10:07:01.757Z,1479.38
2018-04-24T10:08:01.751Z,1490.63
2018-04-24T10:09:01.742Z,1496.25
2018-04-24T10:10:01.754Z,1434.38
2018-04-24T10:11:01.769Z,1383.75
2018-04-24T10:12:01.785Z,1434.38
2018-04-24T10:13:01.854Z,1485.00
2018-04-24T10:14:01.841Z,1451.25
2018-04-24T10:15:01.839Z,1417.50
2018-04-24T10:16:01.848Z,1451.25
2018-04-24T10:17:01.861Z,1423.13
2018-04-24T10:18:01.877Z,1361.25
2018-04-24T10:19:01.893Z,1355.63
2018-04-24T10:20:01.909Z,1389.38
2018-04-24T10:21:01.927Z,1440.00
2018-04-24T10:22:01.941Z,1440.00
2018-04-24T10:23:01.956Z,1389.38
2018-04-24T10:24:01.973Z,1411.88
2018-04-24T10:25:01.987Z,1479.38
2018-04-24T10:26:02.002Z,1456.88
2018-04-24T10:27:02.019Z,1456.88
2018-04-24T10:28:02.034Z,1417.50
2018-04-24T10:29:02.049Z,1226.25
2018-04-24T10:30:02.124Z,1389.38
2018-04-24T10:31:02.081Z,1293.75
2018-04-24T10:32:02.095Z,1344.38
2018-04-24T10:33:02.118Z,1366.88
2018-04-24T10:34:02.124Z,1299.38
2018-04-24T10:35:02.193Z,1293.75
2018-04-24T10:36:02.154Z,427.50
2018-04-24T10:37:02.169Z,264.38
2018-04-24T10:38:02.184Z,202.50
2018-04-24T10:39:02.198Z,196.88
2018-04-24T10:40:02.276Z,208.13
2018-04-24T10:41:02.225Z,196.88
2018-04-24T10:42:02.239Z,196.88
2018-04-24T10:43:02.504Z,180.00
2018-04-24T10:44:02.265Z,191.25
2018-04-24T10:45:02.276Z,894.38
2018-04-24T10:46:02.288Z,1057.50
2018-04-24T10:47:02.299Z,1147.50
2018-04-24T10:48:02.313Z,1102.50
2018-04-24T10:49:02.327Z,1023.75
2018-04-24T10:50:02.336Z,984.38
2018-04-24T10:51:02.344Z,821.25
2018-04-24T10:52:02.358Z,286.88
2018-04-24T10:53:02.368Z,933.75
2018-04-24T10:54:02.383Z,928.13
2018-04-24T10:55:02.395Z,883.13
2018-04-24T10:56:02.429Z,855.00
2018-04-24T10:57:02.415Z,843.75
2018-04-24T10:58:02.483Z,832.50
2018-04-24T10:59:02.439Z,832.50
2018-04-24T11:00:02.452Z,832.50
2018-04-24T11:01:02.464Z,838.13
2018-04-24T11:02:02.476Z,855.00
2018-04-24T11:03:02.493Z,871.88
2018-04-24T11:04:02.506Z,855.00
2018-04-24T11:05:02.514Z,826.88
2018-04-24T11:06:02.530Z,815.63
2018-04-24T11:07:02.543Z,804.38
2018-04-24T11:08:02.555Z,798.75
2018-04-24T11:09:02.567Z,781.88
2018-04-24T11:10:02.582Z,793.13
2018-04-24T11:11:02.595Z,793.13
2018-04-24T11:12:02.736Z,646.88
2018-04-24T11:13:02.982Z,736.88
2018-04-24T11:14:02.875Z,731.25
2018-04-24T11:15:02.790Z,382.50
2018-04-24T11:16:02.899Z,793.13
2018-04-24T11:17:02.717Z,320.63
2018-04-24T11:18:02.691Z,776.25
2018-04-24T11:19:02.701Z,624.38
2018-04-24T11:20:02.984Z,736.88
2018-04-24T11:21:02.727Z,253.13
2018-04-24T11:22:02.740Z,793.13
2018-04-24T11:23:02.755Z,753.75
2018-04-24T11:24:02.768Z,720.00
2018-04-24T11:25:02.789Z,714.38
2018-04-24T11:26:02.794Z,680.63
2018-04-24T11:27:03.112Z,663.75
2018-04-24T11:28:02.821Z,686.25
2018-04-24T11:29:03.079Z,675.00
2018-04-24T11:30:02.848Z,641.25
2018-04-24T11:31:02.862Z,635.63
2018-04-24T11:32:02.874Z,601.88
2018-04-24T11:33:02.898Z,601.88
2018-04-24T11:34:02.902Z,613.13
2018-04-24T11:35:02.915Z,607.50
2018-04-24T11:36:02.974Z,635.63
2018-04-24T11:37:02.942Z,523.13
2018-04-24T11:38:03.060Z,320.63
2018-04-24T11:39:03.236Z,354.38
2018-04-24T11:40:03.092Z,506.25
2018-04-24T11:41:03.175Z,736.88
2018-04-24T11:42:03.018Z,270.00
2018-04-24T11:43:03.022Z,815.63
2018-04-24T11:44:03.132Z,815.63
2018-04-24T11:45:03.239Z,849.38
2018-04-24T11:46:03.445Z,877.50
2018-04-24T11:47:03.518Z,916.88
2018-04-24T11:48:03.462Z,894.38
2018-04-24T11:49:03.175Z,826.88
2018-04-24T11:50:03.365Z,871.88
2018-04-24T11:51:03.952Z,855.00
2018-04-24T11:52:03.619Z,871.88
2018-04-24T11:53:03.347Z,860.63
2018-04-24T11:54:03.207Z,832.50
2018-04-24T11:55:03.217Z,826.88
2018-04-24T11:56:03.467Z,860.63
2018-04-24T11:57:03.700Z,821.25
2018-04-24T11:58:03.282Z,821.25
2018-04-24T11:59:03.312Z,849.38
2018-04-24T12:00:03.245Z,843.75
2018-04-24T12:01:03.984Z,821.25
2018-04-24T12:02:03.458Z,821.25
2018-04-24T12:03:03.306Z,815.63
2018-04-24T12:04:03.298Z,798.75
2018-04-24T12:05:03.311Z,826.88
2018-04-24T12:06:03.326Z,849.38
2018-04-24T12:07:03.337Z,843.75
2018-04-24T12:08:03.350Z,821.25
2018-04-24T12:09:03.362Z,815.63
2018-04-24T12:10:03.460Z,855.00
2018-04-24T12:11:03.389Z,849.38
2018-04-24T12:12:03.402Z,888.75
2018-04-24T12:13:03.415Z,905.63
2018-04-24T12:14:03.427Z,866.25
2018-04-24T12:15:03.487Z,849.38
2018-04-24T12:16:03.495Z,849.38
2018-04-24T12:17:03.800Z,855.00
2018-04-24T12:18:03.548Z,185.63
2018-04-24T12:19:03.494Z,202.50
2018-04-24T12:20:03.505Z,883.13
2018-04-24T12:21:03.596Z,489.38
2018-04-24T12:22:03.628Z,815.63
2018-04-24T12:23:03.544Z,826.88
2018-04-24T12:24:03.558Z,793.13
2018-04-24T12:25:03.571Z,804.38
2018-04-24T12:26:03.619Z,765.00
2018-04-24T12:27:03.594Z,765.00
2018-04-24T12:28:03.606Z,821.25
2018-04-24T12:29:03.619Z,832.50
2018-04-24T12:30:03.631Z,838.13
2018-04-24T12:31:03.898Z,843.75
2018-04-24T12:32:03.656Z,849.38
2018-04-24T12:33:03.669Z,832.50
2018-04-24T12:34:03.682Z,804.38
2018-04-24T12:35:03.696Z,798.75
2018-04-24T12:36:03.708Z,725.63
2018-04-24T12:37:03.722Z,219.38
2018-04-24T12:38:03.732Z,675.00
2018-04-24T12:39:03.746Z,736.88
2018-04-24T12:40:03.757Z,1035.00
2018-04-24T12:41:03.773Z,1119.38
2018-04-24T12:42:03.783Z,1164.38
2018-04-24T12:43:03.809Z,1136.25
2018-04-24T12:44:03.807Z,1091.25
2018-04-24T12:45:03.829Z,1170.00
2018-04-24T12:46:03.829Z,1231.88
2018-04-24T12:47:03.841Z,1209.38